Time;durP1;ratioP1;P1;durP2;ratioP2;P2;SDS_P1;SDS_P2;PMS_P1;PMS_P2;Temp;Humidity;BMP_temperature;BMP_pressure;BME280_temperature;BME280_humidity;BME280_pressure;Samples;Min_cycle;Max_cycle;Signal;HPM_P1;HPM_P2
2023/01/16 00:01:14;;;;;;;;;;;6.10;84.20;;;;;;4976764;28;19965;-80
2023/01/16 00:03:39;;;;;;;;;;;6.10;83.80;;;;;;4984037;28;20341;-82
2023/01/16 00:06:05;;;;;;;;;;;6.10;83.10;;;;;;4976693;28;20008;-82
2023/01/16 00:08:31;;;;;;;;;;;6.00;83.50;;;;;;4973645;28;20480;-82
2023/01/16 00:10:56;;;;;;;;;;;5.90;83.60;;;;;;4970563;28;19918;-82
2023/01/16 00:13:22;;;;;;;;;;;5.90;83.50;;;;;;4982709;28;20004;-82
2023/01/16 00:15:48;;;;;;;;;;;5.90;83.40;;;;;;4992473;28;19917;-81
2023/01/16 00:18:14;;;;;;;;;;;5.90;83.60;;;;;;4993690;28;19925;-81
2023/01/16 00:20:39;;;;;;;;;;;5.90;83.90;;;;;;4982346;28;19914;-81
2023/01/16 00:23:05;;;;;;;;;;;5.90;83.80;;;;;;4970885;28;19960;-81
2023/01/16 00:25:30;;;;;;;;;;;5.90;84.10;;;;;;4968513;28;19922;-81
2023/01/16 00:27:55;;;;;;;;;;;5.80;83.70;;;;;;4985338;28;20057;-82
2023/01/16 00:30:21;;;;;;;;;;;5.90;83.60;;;;;;4971178;28;19922;-82
2023/01/16 00:32:47;;;;;;;;;;;5.90;82.90;;;;;;4965422;28;19929;-82
2023/01/16 00:35:12;;;;;;;;;;;5.90;83.50;;;;;;4965372;28;19944;-82
2023/01/16 00:37:38;;;;;;;;;;;5.90;83.30;;;;;;4976988;28;19917;-82
2023/01/16 00:40:04;;;;;;;;;;;5.90;82.90;;;;;;4973257;28;19918;-82
2023/01/16 00:42:29;;;;;;;;;;;6.00;82.90;;;;;;4976255;28;19914;-81
2023/01/16 00:44:55;;;;;;;;;;;5.90;82.90;;;;;;4989084;28;19914;-81
2023/01/16 00:47:20;;;;;;;;;;;5.80;82.60;;;;;;4975461;28;19921;-82
2023/01/16 00:49:45;;;;;;;;;;;5.80;82.30;;;;;;4974865;28;19941;-82
2023/01/16 00:52:11;;;;;;;;;;;5.80;82.40;;;;;;4973304;28;19954;-80
2023/01/16 00:54:36;;;;;;;;;;;5.80;82.20;;;;;;4971116;28;19914;-82
2023/01/16 00:57:02;;;;;;;;;;;5.70;82.40;;;;;;4978500;28;19941;-81
2023/01/16 00:59:27;;;;;;;;;;;5.70;82.50;;;;;;4976391;28;19918;-82
2023/01/16 01:01:53;;;;;;;;;;;5.80;83.20;;;;;;4976763;28;20359;-82
2023/01/16 01:04:18;;;;;;;;;;;5.80;82.50;;;;;;4979416;28;19914;-81
2023/01/16 01:06:43;;;;;;;;;;;5.90;82.40;;;;;;4986149;28;19914;-81
2023/01/16 01:09:09;;;;;;;;;;;6.00;81.70;;;;;;4985241;28;19918;-80
2023/01/16 01:11:34;;;;;;;;;;;6.00;81.50;;;;;;4976243;28;20013;-82
2023/01/16 01:14:00;;;;;;;;;;;5.80;81.50;;;;;;4961069;28;20021;-82
2023/01/16 01:16:25;;;;;;;;;;;5.80;82.00;;;;;;4975006;28;20379;-81
2023/01/16 01:18:50;;;;;;;;;;;5.80;82.30;;;;;;4976400;28;19925;-81
2023/01/16 01:21:16;;;;;;;;;;;5.70;82.00;;;;;;4975003;28;19947;-81
2023/01/16 01:23:41;;;;;;;;;;;5.60;82.00;;;;;;4973675;28;19914;-81
2023/01/16 01:26:08;;;;;;;;;;;5.60;81.90;;;;;;4974602;28;20009;-81
2023/01/16 01:28:33;;;;;;;;;;;5.60;82.20;;;;;;4972020;28;19925;-81
2023/01/16 01:31:01;;;;;;;;;;;5.70;81.90;;;;;;4981488;28;19918;-81
2023/01/16 01:33:26;;;;;;;;;;;5.60;81.60;;;;;;4971925;28;19915;-81
2023/01/16 01:35:52;;;;;;;;;;;5.60;81.70;;;;;;4980694;28;19914;-81
2023/01/16 01:38:17;;;;;;;;;;;5.60;81.80;;;;;;4971751;28;19949;-81
2023/01/16 01:40:43;;;;;;;;;;;5.60;82.00;;;;;;4970985;28;19922;-81
2023/01/16 01:43:11;;;;;;;;;;;5.70;81.80;;;;;;4968107;28;19961;-81
2023/01/16 01:45:36;;;;;;;;;;;5.70;81.90;;;;;;4958508;28;19914;-81
2023/01/16 01:48:12;;;;;;;;;;;5.60;81.80;;;;;;4971323;28;20276;-81
2023/01/16 01:51:00;;;;;;;;;;;5.60;81.80;;;;;;4974373;28;19914;-81
2023/01/16 01:53:29;;;;;;;;;;;5.60;81.70;;;;;;4973772;28;19915;-81
2023/01/16 01:55:57;;;;;;;;;;;5.50;82.20;;;;;;4972189;28;20533;-81
2023/01/16 01:58:24;;;;;;;;;;;5.60;82.10;;;;;;4968631;28;20377;-81
2023/01/16 02:00:51;;;;;;;;;;;5.40;81.90;;;;;;4971637;28;20396;-81
2023/01/16 02:03:25;;;;;;;;;;;5.40;82.30;;;;;;4970418;28;20384;-81
2023/01/16 02:05:53;;;;;;;;;;;5.50;82.30;;;;;;4981139;28;20070;-81
2023/01/16 02:08:19;;;;;;;;;;;5.50;82.00;;;;;;4967399;28;19940;-81
2023/01/16 02:10:50;;;;;;;;;;;5.40;82.20;;;;;;4972660;28;19960;-81
2023/01/16 02:13:15;;;;;;;;;;;5.30;82.50;;;;;;4968661;28;19964;-81
2023/01/16 02:19:15;;;;;;;;;;;5.30;82.60;;;;;;4971653;28;20384;-81
2023/01/16 02:21:24;;;;;;;;;;;5.30;82.90;;;;;;4970423;28;19972;-81
2023/01/16 02:24:13;;;;;;;;;;;5.20;82.60;;;;;;4965690;28;19930;-81
2023/01/16 02:26:58;;;;;;;;;;;5.10;82.60;;;;;;4965722;28;19925;-81
2023/01/16 02:29:23;;;;;;;;;;;5.20;82.90;;;;;;4973459;28;20269;-81
2023/01/16 02:31:53;;;;;;;;;;;5.20;83.00;;;;;;4971873;28;19918;-81
2023/01/16 02:34:19;;;;;;;;;;;5.20;82.90;;;;;;4972463;28;19924;-81
2023/01/16 02:36:47;;;;;;;;;;;5.20;82.90;;;;;;4961783;28;20296;-81
2023/01/16 02:39:28;;;;;;;;;;;5.30;82.70;;;;;;4969835;28;19914;-81
2023/01/16 02:42:08;;;;;;;;;;;5.30;82.70;;;;;;4965354;28;19918;-80
2023/01/16 02:44:43;;;;;;;;;;;5.20;82.80;;;;;;4967049;28;19914;-81
2023/01/16 02:47:24;;;;;;;;;;;5.20;83.40;;;;;;4972193;28;20444;-80
2023/01/16 02:50:08;;;;;;;;;;;5.10;83.40;;;;;;4990124;28;19920;-81
2023/01/16 02:52:45;;;;;;;;;;;5.10;83.20;;;;;;4982545;28;19932;-81
2023/01/16 02:55:20;;;;;;;;;;;5.10;83.10;;;;;;4977820;28;19953;-81
2023/01/16 02:57:47;;;;;;;;;;;5.10;83.50;;;;;;4970166;28;20408;-81
2023/01/16 03:00:16;;;;;;;;;;;5.10;83.30;;;;;;4966839;28;19910;-81
2023/01/16 03:02:42;;;;;;;;;;;5.30;83.30;;;;;;4971915;28;19921;-81
2023/01/16 03:05:07;;;;;;;;;;;5.30;83.20;;;;;;4972119;28;19910;-81
2023/01/16 03:07:42;;;;;;;;;;;5.50;82.70;;;;;;4975486;28;19941;-81
2023/01/16 03:10:26;;;;;;;;;;;5.50;82.50;;;;;;4979967;28;20393;-81
2023/01/16 03:12:57;;;;;;;;;;;5.40;83.00;;;;;;4973290;28;19918;-82
2023/01/16 03:15:27;;;;;;;;;;;5.50;82.50;;;;;;4970143;28;20476;-82
2023/01/16 03:18:08;;;;;;;;;;;5.60;82.50;;;;;;4970497;28;19964;-81
2023/01/16 03:20:39;;;;;;;;;;;5.60;82.70;;;;;;4978925;28;19914;-80
2023/01/16 03:23:08;;;;;;;;;;;5.60;82.80;;;;;;4972315;28;19969;-80
2023/01/16 03:25:54;;;;;;;;;;;5.70;82.20;;;;;;4982766;28;19922;-79
2023/01/16 03:28:46;;;;;;;;;;;5.60;82.70;;;;;;4983161;28;19918;-79
2023/01/16 03:31:18;;;;;;;;;;;5.60;82.40;;;;;;4995330;28;19918;-79
2023/01/16 03:33:58;;;;;;;;;;;5.70;82.60;;;;;;4994333;28;20005;-80
2023/01/16 03:36:29;;;;;;;;;;;5.80;82.50;;;;;;4980238;28;19990;-80
2023/01/16 03:38:55;;;;;;;;;;;5.80;82.80;;;;;;4976191;28;20191;-80
2023/01/16 03:41:22;;;;;;;;;;;5.70;82.50;;;;;;4972940;28;19954;-80
2023/01/16 03:43:50;;;;;;;;;;;5.80;82.50;;;;;;4976390;28;20304;-79
2023/01/16 03:46:18;;;;;;;;;;;5.80;82.40;;;;;;4974940;28;20439;-80
2023/01/16 03:48:53;;;;;;;;;;;5.60;82.60;;;;;;4968115;28;19925;-80
2023/01/16 03:51:23;;;;;;;;;;;5.50;83.10;;;;;;4974930;28;20466;-80
2023/01/16 03:54:12;;;;;;;;;;;5.50;83.00;;;;;;4975125;28;19918;-80
2023/01/16 03:56:45;;;;;;;;;;;5.30;83.30;;;;;;4978349;28;19969;-80
2023/01/16 03:59:10;;;;;;;;;;;5.30;83.40;;;;;;4974569;28;19941;-79
2023/01/16 04:01:53;;;;;;;;;;;5.30;83.40;;;;;;4974341;28;19924;-79
2023/01/16 04:04:40;;;;;;;;;;;5.20;83.80;;;;;;4974691;28;20360;-79
2023/01/16 04:07:09;;;;;;;;;;;5.30;84.00;;;;;;4981251;28;19913;-79
2023/01/16 04:09:34;;;;;;;;;;;5.30;83.40;;;;;;4974414;28;20001;-79
2023/01/16 04:12:01;;;;;;;;;;;5.50;83.40;;;;;;4974101;28;20013;-79
2023/01/16 04:14:27;;;;;;;;;;;5.40;82.90;;;;;;4967806;28;19921;-79
2023/01/16 04:16:52;;;;;;;;;;;5.30;83.20;;;;;;4974012;28;19915;-79
2023/01/16 04:19:18;;;;;;;;;;;5.40;83.30;;;;;;4972311;28;19922;-80
2023/01/16 04:21:44;;;;;;;;;;;5.40;83.10;;;;;;4985298;28;20375;-80
2023/01/16 04:24:10;;;;;;;;;;;5.50;82.90;;;;;;4969854;28;19914;-80
2023/01/16 04:26:35;;;;;;;;;;;5.50;83.10;;;;;;4963999;28;19914;-80
2023/01/16 04:29:01;;;;;;;;;;;5.50;82.90;;;;;;4993539;28;19922;-80
2023/01/16 04:31:28;;;;;;;;;;;5.50;83.20;;;;;;4701618;23;19929;-81
2023/01/16 04:33:53;;;;;;;;;;;5.60;83.00;;;;;;5027381;28;19925;-84
2023/01/16 04:36:19;;;;;;;;;;;5.60;83.10;;;;;;5043161;28;19921;-82
2023/01/16 04:38:44;;;;;;;;;;;5.60;83.00;;;;;;5042415;28;19919;-81
2023/01/16 04:41:10;;;;;;;;;;;5.60;82.40;;;;;;5030215;28;20344;-80
2023/01/16 04:43:35;;;;;;;;;;;5.70;82.40;;;;;;5013730;28;19959;-82
2023/01/16 04:46:01;;;;;;;;;;;5.80;82.00;;;;;;5029636;28;19999;-81
2023/01/16 04:48:26;;;;;;;;;;;5.80;82.50;;;;;;5030223;28;20809;-83
2023/01/16 04:50:51;;;;;;;;;;;5.80;82.60;;;;;;5019067;28;19921;-83
2023/01/16 04:53:17;;;;;;;;;;;5.80;82.00;;;;;;5027581;28;20008;-81
2023/01/16 04:55:42;;;;;;;;;;;5.70;82.10;;;;;;4998970;28;19913;-82
2023/01/16 04:58:08;;;;;;;;;;;5.70;82.40;;;;;;5040314;28;19916;-82
2023/01/16 05:00:33;;;;;;;;;;;5.50;82.60;;;;;;5015161;28;20012;-81
2023/01/16 05:02:59;;;;;;;;;;;5.30;83.00;;;;;;5029360;28;20034;-82
2023/01/16 05:05:24;;;;;;;;;;;5.30;83.00;;;;;;5032593;28;19928;-83
2023/01/16 05:08:15;;;;;;;;;;;5.30;83.10;;;;;;5012619;28;19921;-82
2023/01/16 05:10:35;;;;;;;;;;;5.20;83.20;;;;;;5028399;28;19918;-83
2023/01/16 05:13:01;;;;;;;;;;;5.30;83.10;;;;;;5028211;28;19984;-81
2023/01/16 05:15:26;;;;;;;;;;;5.10;83.10;;;;;;5014148;28;19913;-83
2023/01/16 05:17:52;;;;;;;;;;;5.10;83.20;;;;;;5019408;28;19917;-82
2023/01/16 05:20:18;;;;;;;;;;;5.10;83.20;;;;;;5011673;28;19924;-83
2023/01/16 05:22:43;;;;;;;;;;;5.10;83.20;;;;;;5033161;28;21082;-83
2023/01/16 05:25:09;;;;;;;;;;;5.10;83.50;;;;;;5010108;28;19914;-82
2023/01/16 05:27:34;;;;;;;;;;;5.10;83.60;;;;;;5027847;28;20391;-82
2023/01/16 05:30:00;;;;;;;;;;;5.10;83.40;;;;;;5024585;28;19914;-84
2023/01/16 05:32:25;;;;;;;;;;;5.00;82.70;;;;;;5028567;28;19960;-83
2023/01/16 05:34:50;;;;;;;;;;;5.10;83.20;;;;;;5012951;28;19910;-83
2023/01/16 05:37:16;;;;;;;;;;;5.10;83.00;;;;;;5008806;28;19943;-84
2023/01/16 05:39:41;;;;;;;;;;;5.10;82.70;;;;;;5021831;28;19916;-83
2023/01/16 05:42:20;;;;;;;;;;;5.10;82.90;;;;;;5012396;28;20348;-83
2023/01/16 05:44:47;;;;;;;;;;;5.10;82.50;;;;;;5013769;28;20348;-83
2023/01/16 05:47:13;;;;;;;;;;;5.10;83.00;;;;;;5012718;28;19976;-83
2023/01/16 05:49:38;;;;;;;;;;;5.10;82.40;;;;;;5043241;28;19951;-84
2023/01/16 05:52:04;;;;;;;;;;;5.10;82.60;;;;;;5010593;28;19920;-83
2023/01/16 05:54:29;;;;;;;;;;;5.10;83.00;;;;;;5008609;28;20255;-83
2023/01/16 05:56:55;;;;;;;;;;;5.10;83.00;;;;;;5030392;28;19913;-86
2023/01/16 05:59:20;;;;;;;;;;;5.00;82.50;;;;;;5014979;28;20415;-85
2023/01/16 06:01:45;;;;;;;;;;;5.10;83.10;;;;;;5027584;28;20007;-84
2023/01/16 06:04:11;;;;;;;;;;;5.10;82.40;;;;;;5025646;28;19913;-82
2023/01/16 06:06:36;;;;;;;;;;;5.10;82.60;;;;;;5026405;28;20000;-83
2023/01/16 06:09:02;;;;;;;;;;;5.20;82.50;;;;;;5014145;28;20852;-84
2023/01/16 06:11:28;;;;;;;;;;;5.20;82.00;;;;;;5027260;28;19921;-84
2023/01/16 06:13:53;;;;;;;;;;;5.20;82.40;;;;;;5029349;28;19923;-83
2023/01/16 06:16:19;;;;;;;;;;;5.10;82.10;;;;;;5035492;28;19920;-83
2023/01/16 06:18:44;;;;;;;;;;;5.20;82.20;;;;;;5014556;28;19916;-85
2023/01/16 06:21:10;;;;;;;;;;;5.20;82.20;;;;;;5009705;28;20011;-85
2023/01/16 06:23:35;;;;;;;;;;;5.20;81.80;;;;;;5036388;28;20290;-86
2023/01/16 06:26:02;;;;;;;;;;;5.10;82.20;;;;;;5027406;28;20300;-84
2023/01/16 06:28:28;;;;;;;;;;;5.30;81.90;;;;;;5007664;28;19953;-83
2023/01/16 06:30:53;;;;;;;;;;;5.30;81.90;;;;;;5032421;28;19917;-81
2023/01/16 06:33:19;;;;;;;;;;;5.40;81.50;;;;;;5019412;28;19971;-83
2023/01/16 06:35:45;;;;;;;;;;;5.40;80.70;;;;;;5015976;28;20140;-87
2023/01/16 06:38:10;;;;;;;;;;;5.40;80.90;;;;;;5020218;28;19924;-83
2023/01/16 06:40:35;;;;;;;;;;;5.50;81.10;;;;;;5013550;28;20342;-82
2023/01/16 06:43:01;;;;;;;;;;;5.50;80.90;;;;;;5033125;28;19960;-83
2023/01/16 06:45:26;;;;;;;;;;;5.60;81.00;;;;;;5026929;28;20338;-86
2023/01/16 06:47:52;;;;;;;;;;;5.60;80.70;;;;;;5015454;28;19920;-82
2023/01/16 06:50:18;;;;;;;;;;;5.60;80.70;;;;;;5022116;28;19948;-81
2023/01/16 06:52:43;;;;;;;;;;;5.70;79.90;;;;;;5035615;28;20287;-82
2023/01/16 06:55:09;;;;;;;;;;;5.80;79.50;;;;;;5015892;28;19913;-81
2023/01/16 06:57:37;;;;;;;;;;;5.80;79.20;;;;;;5013214;28;20316;-83
2023/01/16 07:00:03;;;;;;;;;;;5.80;79.60;;;;;;5014867;28;19913;-81
2023/01/16 07:02:29;;;;;;;;;;;5.70;79.70;;;;;;5026127;28;19960;-82
2023/01/16 07:04:54;;;;;;;;;;;5.80;79.90;;;;;;5014147;28;19975;-82
2023/01/16 07:07:20;;;;;;;;;;;5.80;79.60;;;;;;5015127;28;19948;-82
2023/01/16 07:09:45;;;;;;;;;;;5.80;79.70;;;;;;5031192;28;19914;-82
2023/01/16 07:12:10;;;;;;;;;;;5.80;79.60;;;;;;5009534;28;19918;-83
2023/01/16 07:22:48;;;;;;;;;;;5.80;79.40;;;;;;5036700;28;19928;-83
2023/01/16 07:25:18;;;;;;;;;;;5.70;79.50;;;;;;5016803;28;19913;-83
2023/01/16 07:27:47;;;;;;;;;;;5.70;79.50;;;;;;5013827;28;19921;-84
2023/01/16 07:30:13;;;;;;;;;;;5.80;79.10;;;;;;5005914;28;19917;-81
2023/01/16 07:32:39;;;;;;;;;;;5.80;78.80;;;;;;5024908;28;19928;-81
2023/01/16 07:35:05;;;;;;;;;;;5.80;78.90;;;;;;5009864;28;19937;-81
2023/01/16 07:37:31;;;;;;;;;;;5.80;79.10;;;;;;5021710;28;19913;-82
2023/01/16 07:39:56;;;;;;;;;;;5.80;78.90;;;;;;5018621;28;19955;-83
2023/01/16 07:42:22;;;;;;;;;;;5.80;78.90;;;;;;5028813;28;20010;-82
2023/01/16 07:44:47;;;;;;;;;;;5.90;78.80;;;;;;5022915;28;19913;-81
2023/01/16 07:47:13;;;;;;;;;;;5.80;78.70;;;;;;5042015;28;20086;-81
2023/01/16 07:49:38;;;;;;;;;;;5.80;79.30;;;;;;5045396;28;19930;-81
2023/01/16 07:52:04;;;;;;;;;;;5.90;78.90;;;;;;5027731;28;20365;-83
2023/01/16 07:54:29;;;;;;;;;;;6.00;79.10;;;;;;5014068;28;20373;-81
2023/01/16 07:56:54;;;;;;;;;;;6.00;78.60;;;;;;5035093;28;20355;-85
2023/01/16 07:59:20;;;;;;;;;;;6.00;78.60;;;;;;5032439;28;19913;-82
2023/01/16 08:01:46;;;;;;;;;;;6.00;79.00;;;;;;5033781;28;19917;-81
2023/01/16 08:04:12;;;;;;;;;;;5.80;79.00;;;;;;5013700;28;19984;-83
2023/01/16 08:06:43;;;;;;;;;;;5.90;79.50;;;;;;5013958;28;19964;-84
2023/01/16 08:09:09;;;;;;;;;;;5.80;80.10;;;;;;5015741;28;20008;-84
2023/01/16 08:11:35;;;;;;;;;;;5.80;79.30;;;;;;5033524;28;19960;-85
2023/01/16 08:14:00;;;;;;;;;;;5.80;79.50;;;;;;5015906;28;20403;-85
2023/01/16 08:16:26;;;;;;;;;;;5.80;79.50;;;;;;5011802;28;19909;-80
2023/01/16 08:18:52;;;;;;;;;;;5.80;79.80;;;;;;5031051;28;19951;-80
2023/01/16 08:21:17;;;;;;;;;;;5.70;79.50;;;;;;5013978;28;20044;-83
2023/01/16 08:23:43;;;;;;;;;;;5.70;79.90;;;;;;5014848;28;19919;-84
2023/01/16 08:26:08;;;;;;;;;;;5.80;80.00;;;;;;5034865;28;19924;-82
2023/01/16 08:28:34;;;;;;;;;;;5.80;79.80;;;;;;5019011;28;20289;-84
2023/01/16 08:31:04;;;;;;;;;;;5.80;80.60;;;;;;5018286;28;20388;-83
2023/01/16 08:33:30;;;;;;;;;;;5.70;81.30;;;;;;5032408;28;19913;-83
2023/01/16 08:35:57;;;;;;;;;;;5.60;82.10;;;;;;5035024;28;19924;-85
2023/01/16 08:38:22;;;;;;;;;;;5.60;82.60;;;;;;5027383;28;19953;-85
2023/01/16 08:40:48;;;;;;;;;;;5.50;83.20;;;;;;5011945;28;19925;-83
2023/01/16 08:51:26;;;;;;;;;;;5.30;84.70;;;;;;5034253;28;20102;-82
2023/01/16 08:53:52;;;;;;;;;;;5.30;84.80;;;;;;5030077;28;20373;-81
2023/01/16 08:56:18;;;;;;;;;;;5.30;84.60;;;;;;5017931;28;19991;-83
2023/01/16 08:58:44;;;;;;;;;;;5.40;84.30;;;;;;5014033;28;20390;-82
2023/01/16 09:01:09;;;;;;;;;;;5.40;83.80;;;;;;5033385;28;19913;-82
2023/01/16 09:03:35;;;;;;;;;;;5.40;84.20;;;;;;5010716;28;19936;-83
2023/01/16 09:06:00;;;;;;;;;;;5.40;84.00;;;;;;5023456;28;19923;-82
2023/01/16 09:08:26;;;;;;;;;;;5.40;83.40;;;;;;5019300;28;20005;-83
2023/01/16 09:13:51;;;;;;;;;;;5.50;83.20;;;;;;5028642;28;19920;-82
2023/01/16 09:16:21;;;;;;;;;;;5.60;83.50;;;;;;5012701;28;20005;-82
2023/01/16 09:18:47;;;;;;;;;;;5.60;82.80;;;;;;5024111;28;19925;-80
2023/01/16 09:21:12;;;;;;;;;;;5.60;82.70;;;;;;5015543;28;19913;-81
2023/01/16 09:23:38;;;;;;;;;;;5.60;82.30;;;;;;5035983;28;20435;-79
2023/01/16 09:26:03;;;;;;;;;;;5.60;81.50;;;;;;5032088;28;20451;-81
2023/01/16 09:28:29;;;;;;;;;;;5.70;81.30;;;;;;5012090;28;19914;-79
2023/01/16 09:30:54;;;;;;;;;;;5.80;81.80;;;;;;5027102;28;19952;-80
2023/01/16 09:33:23;;;;;;;;;;;5.90;80.40;;;;;;5029889;28;19920;-80
2023/01/16 09:35:48;;;;;;;;;;;5.90;80.90;;;;;;5019249;28;20472;-80
2023/01/16 09:38:13;;;;;;;;;;;5.90;80.90;;;;;;5033678;28;19960;-81
2023/01/16 09:40:45;;;;;;;;;;;5.90;80.40;;;;;;5017933;28;19913;-80
2023/01/16 09:43:35;;;;;;;;;;;5.90;81.00;;;;;;5014712;28;19917;-80
2023/01/16 09:46:17;;;;;;;;;;;5.90;81.50;;;;;;5024928;28;19913;-83
2023/01/16 09:48:52;;;;;;;;;;;5.90;81.10;;;;;;5010243;28;19914;-83
2023/01/16 09:51:28;;;;;;;;;;;5.80;81.10;;;;;;5008836;28;19980;-82
2023/01/16 09:59:37;;;;;;;;;;;5.80;81.30;;;;;;5030053;28;20089;-85
2023/01/16 10:02:17;;;;;;;;;;;5.70;81.90;;;;;;5016499;28;20342;-82
2023/01/16 10:04:43;;;;;;;;;;;5.70;82.10;;;;;;5029435;28;19913;-81
2023/01/16 10:07:21;;;;;;;;;;;5.70;82.20;;;;;;5029449;28;19913;-81
2023/01/16 10:09:46;;;;;;;;;;;5.60;82.60;;;;;;5027104;28;19921;-81
2023/01/16 10:12:14;;;;;;;;;;;5.50;83.00;;;;;;5028916;28;19924;-82
2023/01/16 10:14:53;;;;;;;;;;;5.40;83.40;;;;;;5028818;28;19914;-81
2023/01/16 10:17:33;;;;;;;;;;;5.40;83.50;;;;;;5008352;28;20324;-86
2023/01/16 10:20:05;;;;;;;;;;;5.50;83.80;;;;;;5012113;28;19924;-83
2023/01/16 10:22:40;;;;;;;;;;;5.50;84.00;;;;;;5011271;28;19939;-84
2023/01/16 10:25:08;;;;;;;;;;;5.50;83.40;;;;;;5024267;28;19948;-86
2023/01/16 10:27:39;;;;;;;;;;;5.40;83.80;;;;;;5029019;28;19913;-85
2023/01/16 10:30:05;;;;;;;;;;;5.50;83.70;;;;;;5048760;22;21938;-82
2023/01/16 10:32:42;;;;;;;;;;;5.60;83.60;;;;;;5020840;28;19928;-83
2023/01/16 10:35:30;;;;;;;;;;;5.60;83.00;;;;;;5030708;28;19916;-83
2023/01/16 10:37:58;;;;;;;;;;;5.60;82.90;;;;;;5001061;28;19921;-81
2023/01/16 10:40:25;;;;;;;;;;;5.60;82.60;;;;;;5013954;28;19918;-84
2023/01/16 10:51:15;;;;;;;;;;;5.60;82.70;;;;;;5008785;28;19937;-83
2023/01/16 10:53:41;;;;;;;;;;;5.60;82.50;;;;;;5014860;28;19939;-83
2023/01/16 10:56:06;;;;;;;;;;;5.60;82.40;;;;;;5008218;28;19918;-83
2023/01/16 10:58:36;;;;;;;;;;;5.60;82.80;;;;;;5010430;28;19928;-83
2023/01/16 11:01:04;;;;;;;;;;;5.60;82.40;;;;;;4992012;28;19920;-85
2023/01/16 11:03:34;;;;;;;;;;;5.70;81.70;;;;;;5009388;28;20306;-83
2023/01/16 11:06:06;;;;;;;;;;;5.70;82.00;;;;;;5004172;28;20363;-83
2023/01/16 11:08:32;;;;;;;;;;;5.80;81.00;;;;;;5011536;28;19920;-83
2023/01/16 11:10:57;;;;;;;;;;;5.80;80.30;;;;;;5007607;28;20283;-84
2023/01/16 11:18:56;;;;;;;;;;;6.00;79.30;;;;;;5007671;28;19999;-82
2023/01/16 11:21:32;;;;;;;;;;;6.10;78.40;;;;;;5013851;28;19917;-83
2023/01/16 11:23:59;;;;;;;;;;;6.20;78.00;;;;;;5002463;28;19914;-84
2023/01/16 11:26:25;;;;;;;;;;;6.30;78.30;;;;;;5008351;28;19982;-82
2023/01/16 11:28:53;;;;;;;;;;;6.30;77.20;;;;;;4988764;28;19956;-82
2023/01/16 11:31:21;;;;;;;;;;;6.30;77.70;;;;;;5003747;28;19917;-83
2023/01/16 11:33:54;;;;;;;;;;;6.30;77.60;;;;;;4983378;28;19921;-81
2023/01/16 11:36:20;;;;;;;;;;;6.30;77.70;;;;;;4998930;28;19930;-83
2023/01/16 11:38:47;;;;;;;;;;;6.30;77.40;;;;;;4984803;28;19921;-81
2023/01/16 11:41:16;;;;;;;;;;;6.30;76.80;;;;;;4985512;28;19944;-83
2023/01/16 11:46:26;;;;;;;;;;;6.50;76.70;;;;;;5005597;28;19976;-83
2023/01/16 11:48:52;;;;;;;;;;;6.50;76.50;;;;;;4987716;28;20606;-83
2023/01/16 11:51:20;;;;;;;;;;;6.50;77.10;;;;;;4987356;28;19922;-82
2023/01/16 11:53:47;;;;;;;;;;;6.60;77.20;;;;;;5018998;28;19921;-82
2023/01/16 11:56:18;;;;;;;;;;;6.70;76.20;;;;;;4992174;28;19917;-83
2023/01/16 11:58:47;;;;;;;;;;;6.60;76.00;;;;;;5007512;28;19921;-82
2023/01/16 12:01:25;;;;;;;;;;;6.70;76.30;;;;;;4995058;28;19917;-84
2023/01/16 12:04:16;;;;;;;;;;;6.80;76.30;;;;;;4990994;28;20317;-83
2023/01/16 12:06:47;;;;;;;;;;;6.70;76.20;;;;;;4991940;28;19952;-83
2023/01/16 12:09:32;;;;;;;;;;;6.70;76.10;;;;;;4985521;28;19914;-83
2023/01/16 12:15:06;;;;;;;;;;;6.60;76.60;;;;;;5009601;28;19921;-84
2023/01/16 12:17:44;;;;;;;;;;;6.50;76.70;;;;;;5009225;28;20009;-84
2023/01/16 12:20:19;;;;;;;;;;;6.40;76.80;;;;;;4989395;28;19913;-85
2023/01/16 12:22:48;;;;;;;;;;;6.30;77.60;;;;;;4988599;28;19925;-86
2023/01/16 12:25:25;;;;;;;;;;;6.30;77.90;;;;;;4990752;28;19917;-84
2023/01/16 12:28:08;;;;;;;;;;;6.20;78.50;;;;;;4990468;28;20024;-84
2023/01/16 12:30:36;;;;;;;;;;;6.20;79.30;;;;;;5003632;28;19918;-83
2023/01/16 12:33:22;;;;;;;;;;;6.20;80.00;;;;;;5009035;28;19917;-84
2023/01/16 12:36:07;;;;;;;;;;;6.30;80.40;;;;;;5017527;28;19913;-84
2023/01/16 12:38:36;;;;;;;;;;;6.50;79.20;;;;;;4992394;28;20279;-84
2023/01/16 12:43:18;;;;;;;;;;;6.50;80.00;;;;;;4980687;28;19920;-85
2023/01/16 12:43:53;;;;;;;;;;;6.40;79.00;;;;;;5015670;28;19921;-84
2023/01/16 12:46:37;;;;;;;;;;;6.50;78.50;;;;;;4992469;28;20359;-83
2023/01/16 12:49:03;;;;;;;;;;;6.50;78.90;;;;;;5000547;28;20393;-84
2023/01/16 12:51:28;;;;;;;;;;;6.60;78.10;;;;;;4993384;28;20016;-83
2023/01/16 12:54:07;;;;;;;;;;;6.70;78.30;;;;;;4992109;28;19913;-84
2023/01/16 12:56:49;;;;;;;;;;;6.70;77.60;;;;;;5006599;28;19914;-83
2023/01/16 12:59:20;;;;;;;;;;;6.60;77.40;;;;;;5017014;28;19917;-84
2023/01/16 13:01:47;;;;;;;;;;;6.50;78.00;;;;;;5015506;28;19956;-83
2023/01/16 13:04:22;;;;;;;;;;;6.50;78.00;;;;;;5005925;28;19913;-84
2023/01/16 13:06:58;;;;;;;;;;;6.30;77.50;;;;;;5014740;28;19968;-84
2023/01/16 13:09:37;;;;;;;;;;;6.30;78.00;;;;;;4991147;28;19941;-84
2023/01/16 13:14:56;;;;;;;;;;;6.10;78.50;;;;;;5012446;28;20397;-83
2023/01/16 13:17:24;;;;;;;;;;;6.10;79.60;;;;;;5010217;28;19913;-83
2023/01/16 13:19:51;;;;;;;;;;;6.10;78.40;;;;;;5030200;28;19973;-85
2023/01/16 13:22:27;;;;;;;;;;;6.10;78.70;;;;;;5005876;28;19939;-84
2023/01/16 13:25:11;;;;;;;;;;;6.30;78.60;;;;;;4995662;28;19920;-84
2023/01/16 13:27:37;;;;;;;;;;;6.30;78.90;;;;;;5006021;28;19937;-83
2023/01/16 13:30:04;;;;;;;;;;;6.30;79.50;;;;;;5011864;28;19921;-84
2023/01/16 13:32:33;;;;;;;;;;;6.10;80.30;;;;;;4989625;28;19922;-85
2023/01/16 13:35:02;;;;;;;;;;;6.00;81.50;;;;;;5011670;28;19913;-86
2023/01/16 13:37:31;;;;;;;;;;;6.00;81.70;;;;;;4990959;28;19940;-85
2023/01/16 13:40:02;;;;;;;;;;;5.90;81.70;;;;;;4998693;28;19979;-86
2023/01/16 13:42:29;;;;;;;;;;;5.90;82.10;;;;;;4989219;28;19913;-85
2023/01/16 13:47:44;;;;;;;;;;;5.80;82.10;;;;;;5014358;28;19960;-84
2023/01/16 13:50:18;;;;;;;;;;;5.80;81.80;;;;;;4996629;28;19921;-85
2023/01/16 13:52:44;;;;;;;;;;;5.80;82.00;;;;;;4999489;28;19914;-85
2023/01/16 13:55:20;;;;;;;;;;;5.70;82.30;;;;;;5001633;28;19935;-84
2023/01/16 13:57:46;;;;;;;;;;;5.80;82.20;;;;;;4997383;28;19957;-85
2023/01/16 14:00:12;;;;;;;;;;;5.80;82.30;;;;;;4993118;28;20387;-85
2023/01/16 14:02:42;;;;;;;;;;;5.80;82.20;;;;;;5012652;28;19960;-86
2023/01/16 14:05:23;;;;;;;;;;;5.80;82.10;;;;;;4995577;28;21352;-85
2023/01/16 14:10:39;;;;;;;;;;;5.80;82.00;;;;;;5008437;28;19943;-86
2023/01/16 14:13:30;;;;;;;;;;;5.70;81.50;;;;;;4994495;28;19917;-84
2023/01/16 14:18:45;;;;;;;;;;;5.80;82.00;;;;;;5008012;28;19967;-85
2023/01/16 14:21:19;;;;;;;;;;;5.80;81.90;;;;;;5008897;28;19938;-85
2023/01/16 14:24:01;;;;;;;;;;;5.80;81.40;;;;;;4996845;28;19957;-85
2023/01/16 14:26:36;;;;;;;;;;;5.90;81.50;;;;;;5013681;28;19920;-85
2023/01/16 14:29:04;;;;;;;;;;;5.80;81.30;;;;;;4991030;28;19921;-85
2023/01/16 14:31:38;;;;;;;;;;;5.90;81.20;;;;;;5019442;28;19918;-82
2023/01/16 14:34:04;;;;;;;;;;;5.90;81.40;;;;;;4994462;28;19917;-83
2023/01/16 14:36:32;;;;;;;;;;;5.90;81.60;;;;;;4997638;28;20008;-83
2023/01/16 14:38:58;;;;;;;;;;;5.80;81.60;;;;;;5009939;28;19936;-83
2023/01/16 14:55:46;;;;;;;;;;;5.60;84.70;;;;;;5013743;28;19928;-83
2023/01/16 14:58:13;;;;;;;;;;;5.60;85.20;;;;;;4994081;28;19917;-84
2023/01/16 15:00:39;;;;;;;;;;;5.60;85.50;;;;;;4985764;28;19914;-84
2023/01/16 15:03:10;;;;;;;;;;;5.60;86.30;;;;;;5004415;28;20016;-84
2023/01/16 15:05:51;;;;;;;;;;;5.50;86.10;;;;;;5017475;28;20379;-85
2023/01/16 15:08:23;;;;;;;;;;;5.40;86.00;;;;;;5010355;28;20359;-84
2023/01/16 15:10:50;;;;;;;;;;;5.30;86.50;;;;;;5009903;28;19920;-83
2023/01/16 15:13:24;;;;;;;;;;;5.40;86.90;;;;;;5002242;28;20004;-83
2023/01/16 15:15:56;;;;;;;;;;;5.40;86.50;;;;;;4992793;28;19914;-84
2023/01/16 15:24:02;;;;;;;;;;;5.30;87.00;;;;;;5019623;28;19960;-85
2023/01/16 15:26:42;;;;;;;;;;;5.20;87.10;;;;;;5015117;28;20259;-84
2023/01/16 15:29:09;;;;;;;;;;;5.10;87.50;;;;;;4994418;28;19913;-86
2023/01/16 15:31:41;;;;;;;;;;;5.10;87.40;;;;;;5009645;28;19926;-85
2023/01/16 15:34:12;;;;;;;;;;;5.10;87.60;;;;;;4990990;28;20650;-85
2023/01/16 15:36:42;;;;;;;;;;;5.10;87.50;;;;;;4992201;28;19922;-88
2023/01/16 15:39:19;;;;;;;;;;;5.10;87.30;;;;;;4993255;28;19914;-88
2023/01/16 15:47:55;;;;;;;;;;;5.10;87.60;;;;;;5021606;28;19959;-88
2023/01/16 15:50:23;;;;;;;;;;;5.10;87.70;;;;;;4996348;28;19913;-89
2023/01/16 15:52:48;;;;;;;;;;;5.00;87.90;;;;;;4982588;28;19924;-88
2023/01/16 15:55:19;;;;;;;;;;;5.10;87.90;;;;;;4990123;28;19996;-89
2023/01/16 15:57:52;;;;;;;;;;;5.10;87.70;;;;;;4991801;28;20008;-86
2023/01/16 16:00:28;;;;;;;;;;;5.10;87.90;;;;;;5003766;28;19994;-87
2023/01/16 16:02:58;;;;;;;;;;;5.20;87.60;;;;;;4995409;28;19913;-87
2023/01/16 16:05:23;;;;;;;;;;;5.10;87.60;;;;;;5005061;28;19996;-87
2023/01/16 16:07:50;;;;;;;;;;;5.10;87.80;;;;;;5011746;28;20358;-86